sensor_id;sensor_type;location;lat;lon;timestamp;P1;durP1;ratioP1;P2;durP2;ratioP2
79348;SDS011;68817;48.110;11.660;2023-08-12T00:00:03;5.97;;;5.03;;
79348;SDS011;68817;48.110;11.660;2023-08-12T00:02:43;6.60;;;5.47;;
79348;SDS011;68817;48.110;11.660;2023-08-12T00:05:09;6.70;;;5.07;;
79348;SDS011;68817;48.110;11.660;2023-08-12T00:07:41;5.60;;;4.80;;
79348;SDS011;68817;48.110;11.660;2023-08-12T00:10:07;6.30;;;5.20;;
79348;SDS011;68817;48.110;11.660;2023-08-12T00:12:37;6.35;;;5.05;;
79348;SDS011;68817;48.110;11.660;2023-08-12T00:15:03;6.10;;;5.22;;
79348;SDS011;68817;48.110;11.660;2023-08-12T00:17:31;7.65;;;5.65;;
79348;SDS011;68817;48.110;11.660;2023-08-12T00:19:57;7.18;;;5.35;;
79348;SDS011;68817;48.110;11.660;2023-08-12T00:22:22;5.43;;;4.72;;
79348;SDS011;68817;48.110;11.660;2023-08-12T00:24:48;5.95;;;5.18;;
79348;SDS011;68817;48.110;11.660;2023-08-12T00:27:13;5.50;;;4.95;;
79348;SDS011;68817;48.110;11.660;2023-08-12T00:29:39;7.75;;;4.80;;
79348;SDS011;68817;48.110;11.660;2023-08-12T00:32:04;5.38;;;4.72;;
79348;SDS011;68817;48.110;11.660;2023-08-12T00:34:30;5.97;;;4.63;;
79348;SDS011;68817;48.110;11.660;2023-08-12T00:36:56;5.07;;;4.55;;
79348;SDS011;68817;48.110;11.660;2023-08-12T00:39:21;6.97;;;4.82;;
79348;SDS011;68817;48.110;11.660;2023-08-12T00:41:47;6.18;;;4.80;;
79348;SDS011;68817;48.110;11.660;2023-08-12T00:44:13;5.70;;;4.57;;
79348;SDS011;68817;48.110;11.660;2023-08-12T00:46:38;4.97;;;4.13;;
79348;SDS011;68817;48.110;11.660;2023-08-12T00:49:06;5.47;;;4.10;;
79348;SDS011;68817;48.110;11.660;2023-08-12T00:51:31;5.85;;;3.85;;
79348;SDS011;68817;48.110;11.660;2023-08-12T00:53:57;4.65;;;3.80;;
79348;SDS011;68817;48.110;11.660;2023-08-12T00:56:23;4.18;;;3.78;;
79348;SDS011;68817;48.110;11.660;2023-08-12T00:58:49;4.60;;;4.07;;
79348;SDS011;68817;48.110;11.660;2023-08-12T01:01:15;4.63;;;3.50;;
79348;SDS011;68817;48.110;11.660;2023-08-12T01:03:40;4.70;;;3.25;;
79348;SDS011;68817;48.110;11.660;2023-08-12T01:06:06;5.32;;;3.60;;
79348;SDS011;68817;48.110;11.660;2023-08-12T01:08:32;4.60;;;3.65;;
79348;SDS011;68817;48.110;11.660;2023-08-12T01:10:59;5.15;;;3.70;;
79348;SDS011;68817;48.110;11.660;2023-08-12T01:16:35;4.22;;;3.72;;
79348;SDS011;68817;48.110;11.660;2023-08-12T01:19:05;7.13;;;4.10;;
79348;SDS011;68817;48.110;11.660;2023-08-12T01:21:31;4.45;;;3.63;;
79348;SDS011;68817;48.110;11.660;2023-08-12T01:23:58;5.40;;;4.13;;
79348;SDS011;68817;48.110;11.660;2023-08-12T01:26:24;5.35;;;3.97;;
79348;SDS011;68817;48.110;11.660;2023-08-12T01:28:49;6.97;;;4.10;;
79348;SDS011;68817;48.110;11.660;2023-08-12T01:31:15;3.75;;;3.22;;
79348;SDS011;68817;48.110;11.660;2023-08-12T01:34:06;4.65;;;3.92;;
79348;SDS011;68817;48.110;11.660;2023-08-12T01:36:34;4.63;;;3.90;;
79348;SDS011;68817;48.110;11.660;2023-08-12T01:39:01;3.80;;;3.40;;
79348;SDS011;68817;48.110;11.660;2023-08-12T01:41:26;5.07;;;3.90;;
79348;SDS011;68817;48.110;11.660;2023-08-12T01:43:52;11.02;;;4.10;;
79348;SDS011;68817;48.110;11.660;2023-08-12T01:46:17;4.65;;;3.60;;
79348;SDS011;68817;48.110;11.660;2023-08-12T01:48:43;4.10;;;3.55;;
79348;SDS011;68817;48.110;11.660;2023-08-12T01:51:08;5.40;;;3.47;;
79348;SDS011;68817;48.110;11.660;2023-08-12T01:53:33;4.78;;;3.97;;
79348;SDS011;68817;48.110;11.660;2023-08-12T01:55:59;4.32;;;3.88;;
79348;SDS011;68817;48.110;11.660;2023-08-12T01:58:24;7.32;;;4.13;;
79348;SDS011;68817;48.110;11.660;2023-08-12T02:00:51;6.43;;;3.83;;
79348;SDS011;68817;48.110;11.660;2023-08-12T02:03:18;5.80;;;3.85;;
79348;SDS011;68817;48.110;11.660;2023-08-12T02:05:43;5.25;;;3.80;;
79348;SDS011;68817;48.110;11.660;2023-08-12T02:08:08;4.18;;;3.60;;
79348;SDS011;68817;48.110;11.660;2023-08-12T02:10:34;4.95;;;4.13;;
79348;SDS011;68817;48.110;11.660;2023-08-12T02:12:59;5.90;;;3.95;;
79348;SDS011;68817;48.110;11.660;2023-08-12T02:15:25;4.93;;;3.70;;
79348;SDS011;68817;48.110;11.660;2023-08-12T02:17:50;6.57;;;4.22;;
79348;SDS011;68817;48.110;11.660;2023-08-12T02:20:16;4.63;;;4.03;;
79348;SDS011;68817;48.110;11.660;2023-08-12T02:22:43;5.03;;;4.18;;
79348;SDS011;68817;48.110;11.660;2023-08-12T02:25:09;4.85;;;4.35;;
79348;SDS011;68817;48.110;11.660;2023-08-12T02:27:34;5.07;;;3.78;;
79348;SDS011;68817;48.110;11.660;2023-08-12T02:29:59;6.78;;;4.22;;
79348;SDS011;68817;48.110;11.660;2023-08-12T02:32:26;6.05;;;3.95;;
79348;SDS011;68817;48.110;11.660;2023-08-12T02:34:51;4.40;;;4.00;;
79348;SDS011;68817;48.110;11.660;2023-08-12T02:37:17;4.43;;;3.90;;
79348;SDS011;68817;48.110;11.660;2023-08-12T02:39:42;4.25;;;3.80;;
79348;SDS011;68817;48.110;11.660;2023-08-12T02:42:07;4.05;;;3.65;;
79348;SDS011;68817;48.110;11.660;2023-08-12T02:44:33;4.68;;;4.03;;
79348;SDS011;68817;48.110;11.660;2023-08-12T02:46:58;4.57;;;3.38;;
79348;SDS011;68817;48.110;11.660;2023-08-12T02:49:24;5.00;;;4.07;;
79348;SDS011;68817;48.110;11.660;2023-08-12T02:51:49;4.72;;;3.80;;
79348;SDS011;68817;48.110;11.660;2023-08-12T02:54:14;5.95;;;4.13;;
79348;SDS011;68817;48.110;11.660;2023-08-12T02:56:40;5.72;;;3.90;;
79348;SDS011;68817;48.110;11.660;2023-08-12T02:59:05;4.45;;;4.05;;
79348;SDS011;68817;48.110;11.660;2023-08-12T03:01:31;5.72;;;3.90;;
79348;SDS011;68817;48.110;11.660;2023-08-12T03:03:56;5.20;;;3.88;;
79348;SDS011;68817;48.110;11.660;2023-08-12T03:06:21;3.90;;;3.50;;
79348;SDS011;68817;48.110;11.660;2023-08-12T03:08:47;6.38;;;4.00;;
79348;SDS011;68817;48.110;11.660;2023-08-12T03:11:14;4.80;;;3.80;;
79348;SDS011;68817;48.110;11.660;2023-08-12T03:13:40;7.65;;;3.50;;
79348;SDS011;68817;48.110;11.660;2023-08-12T03:16:10;5.60;;;3.65;;
79348;SDS011;68817;48.110;11.660;2023-08-12T03:18:37;5.10;;;3.88;;
79348;SDS011;68817;48.110;11.660;2023-08-12T03:21:05;5.10;;;3.83;;
79348;SDS011;68817;48.110;11.660;2023-08-12T03:23:31;5.28;;;4.00;;
79348;SDS011;68817;48.110;11.660;2023-08-12T03:25:57;4.65;;;4.10;;
79348;SDS011;68817;48.110;11.660;2023-08-12T03:28:22;5.30;;;3.95;;
79348;SDS011;68817;48.110;11.660;2023-08-12T03:30:52;5.05;;;3.75;;
79348;SDS011;68817;48.110;11.660;2023-08-12T03:33:20;4.60;;;4.03;;
79348;SDS011;68817;48.110;11.660;2023-08-12T03:35:46;4.43;;;3.80;;
79348;SDS011;68817;48.110;11.660;2023-08-12T03:38:14;4.47;;;4.03;;
79348;SDS011;68817;48.110;11.660;2023-08-12T03:40:40;4.45;;;3.60;;
79348;SDS011;68817;48.110;11.660;2023-08-12T03:43:08;4.95;;;4.00;;
79348;SDS011;68817;48.110;11.660;2023-08-12T03:45:40;4.55;;;3.53;;
79348;SDS011;68817;48.110;11.660;2023-08-12T03:48:07;4.18;;;3.78;;
79348;SDS011;68817;48.110;11.660;2023-08-12T03:50:36;4.90;;;3.67;;
79348;SDS011;68817;48.110;11.660;2023-08-12T03:53:04;5.13;;;3.75;;
79348;SDS011;68817;48.110;11.660;2023-08-12T03:55:30;4.45;;;3.70;;
79348;SDS011;68817;48.110;11.660;2023-08-12T03:57:57;4.30;;;3.33;;
79348;SDS011;68817;48.110;11.660;2023-08-12T04:00:23;4.57;;;3.67;;
79348;SDS011;68817;48.110;11.660;2023-08-12T04:02:54;4.20;;;3.53;;
79348;SDS011;68817;48.110;11.660;2023-08-12T04:05:20;4.85;;;3.60;;
79348;SDS011;68817;48.110;11.660;2023-08-12T04:07:45;6.55;;;4.15;;
79348;SDS011;68817;48.110;11.660;2023-08-12T04:10:11;5.68;;;3.90;;
79348;SDS011;68817;48.110;11.660;2023-08-12T04:12:36;4.70;;;3.92;;
79348;SDS011;68817;48.110;11.660;2023-08-12T04:15:02;5.30;;;4.30;;
79348;SDS011;68817;48.110;11.660;2023-08-12T04:17:30;5.00;;;4.13;;
79348;SDS011;68817;48.110;11.660;2023-08-12T04:19:55;4.50;;;3.55;;
79348;SDS011;68817;48.110;11.660;2023-08-12T04:22:21;4.70;;;4.18;;
79348;SDS011;68817;48.110;11.660;2023-08-12T04:24:46;4.68;;;3.90;;
79348;SDS011;68817;48.110;11.660;2023-08-12T04:27:12;4.60;;;3.53;;
79348;SDS011;68817;48.110;11.660;2023-08-12T04:29:37;4.90;;;3.83;;
79348;SDS011;68817;48.110;11.660;2023-08-12T04:32:03;5.45;;;4.00;;
79348;SDS011;68817;48.110;11.660;2023-08-12T04:34:29;5.43;;;4.00;;
79348;SDS011;68817;48.110;11.660;2023-08-12T04:36:54;4.45;;;4.05;;
79348;SDS011;68817;48.110;11.660;2023-08-12T04:39:20;3.65;;;3.28;;
79348;SDS011;68817;48.110;11.660;2023-08-12T04:41:47;4.47;;;3.28;;
79348;SDS011;68817;48.110;11.660;2023-08-12T04:44:13;3.63;;;3.10;;
79348;SDS011;68817;48.110;11.660;2023-08-12T04:46:38;5.05;;;3.75;;
79348;SDS011;68817;48.110;11.660;2023-08-12T04:49:04;3.95;;;3.55;;
79348;SDS011;68817;48.110;11.660;2023-08-12T04:51:30;4.85;;;3.97;;
79348;SDS011;68817;48.110;11.660;2023-08-12T04:53:56;4.07;;;3.40;;
79348;SDS011;68817;48.110;11.660;2023-08-12T04:56:21;4.95;;;4.25;;
79348;SDS011;68817;48.110;11.660;2023-08-12T04:58:47;4.70;;;3.78;;
79348;SDS011;68817;48.110;11.660;2023-08-12T05:01:12;4.47;;;4.00;;
79348;SDS011;68817;48.110;11.660;2023-08-12T05:03:38;6.40;;;4.10;;
79348;SDS011;68817;48.110;11.660;2023-08-12T05:06:03;4.90;;;3.88;;
79348;SDS011;68817;48.110;11.660;2023-08-12T05:08:29;4.53;;;3.67;;
79348;SDS011;68817;48.110;11.660;2023-08-12T05:10:55;3.45;;;3.15;;
79348;SDS011;68817;48.110;11.660;2023-08-12T05:13:20;4.45;;;3.40;;
79348;SDS011;68817;48.110;11.660;2023-08-12T05:15:46;4.78;;;3.58;;
79348;SDS011;68817;48.110;11.660;2023-08-12T05:18:13;4.95;;;3.42;;
79348;SDS011;68817;48.110;11.660;2023-08-12T05:20:39;5.80;;;3.92;;
79348;SDS011;68817;48.110;11.660;2023-08-12T05:23:06;4.40;;;3.50;;
79348;SDS011;68817;48.110;11.660;2023-08-12T05:25:31;4.40;;;3.60;;
79348;SDS011;68817;48.110;11.660;2023-08-12T05:27:57;4.28;;;3.60;;
79348;SDS011;68817;48.110;11.660;2023-08-12T05:30:22;4.60;;;3.47;;
79348;SDS011;68817;48.110;11.660;2023-08-12T05:32:48;5.30;;;3.70;;
79348;SDS011;68817;48.110;11.660;2023-08-12T05:35:13;3.53;;;3.08;;
79348;SDS011;68817;48.110;11.660;2023-08-12T05:37:38;3.92;;;3.45;;
79348;SDS011;68817;48.110;11.660;2023-08-12T05:40:04;3.78;;;3.28;;
79348;SDS011;68817;48.110;11.660;2023-08-12T05:42:33;3.60;;;3.28;;
79348;SDS011;68817;48.110;11.660;2023-08-12T05:44:59;5.05;;;3.70;;
79348;SDS011;68817;48.110;11.660;2023-08-12T05:47:24;4.43;;;3.75;;
79348;SDS011;68817;48.110;11.660;2023-08-12T05:49:49;5.13;;;3.15;;
79348;SDS011;68817;48.110;11.660;2023-08-12T05:52:15;3.58;;;3.20;;
79348;SDS011;68817;48.110;11.660;2023-08-12T05:54:40;3.70;;;3.22;;
79348;SDS011;68817;48.110;11.660;2023-08-12T05:57:05;4.63;;;3.13;;
79348;SDS011;68817;48.110;11.660;2023-08-12T05:59:31;3.97;;;3.42;;
79348;SDS011;68817;48.110;11.660;2023-08-12T06:01:56;4.40;;;3.25;;
79348;SDS011;68817;48.110;11.660;2023-08-12T06:04:22;3.83;;;3.50;;
79348;SDS011;68817;48.110;11.660;2023-08-12T06:06:47;3.97;;;3.50;;
79348;SDS011;68817;48.110;11.660;2023-08-12T06:09:12;4.05;;;3.28;;
79348;SDS011;68817;48.110;11.660;2023-08-12T06:11:38;4.30;;;3.03;;
79348;SDS011;68817;48.110;11.660;2023-08-12T06:14:03;4.68;;;3.63;;
79348;SDS011;68817;48.110;11.660;2023-08-12T06:16:29;4.25;;;3.28;;
79348;SDS011;68817;48.110;11.660;2023-08-12T06:18:54;4.57;;;3.35;;
79348;SDS011;68817;48.110;11.660;2023-08-12T06:21:20;3.92;;;2.88;;
79348;SDS011;68817;48.110;11.660;2023-08-12T06:23:45;3.30;;;3.00;;
79348;SDS011;68817;48.110;11.660;2023-08-12T06:26:10;4.03;;;3.10;;
79348;SDS011;68817;48.110;11.660;2023-08-12T06:28:36;3.90;;;2.85;;
79348;SDS011;68817;48.110;11.660;2023-08-12T06:31:01;4.38;;;2.90;;
79348;SDS011;68817;48.110;11.660;2023-08-12T06:33:27;3.50;;;3.17;;
79348;SDS011;68817;48.110;11.660;2023-08-12T06:35:52;5.25;;;2.97;;
79348;SDS011;68817;48.110;11.660;2023-08-12T06:38:17;6.75;;;3.00;;
79348;SDS011;68817;48.110;11.660;2023-08-12T06:40:43;3.78;;;2.95;;
79348;SDS011;68817;48.110;11.660;2023-08-12T06:43:08;3.90;;;3.03;;
79348;SDS011;68817;48.110;11.660;2023-08-12T06:45:34;4.15;;;3.30;;
79348;SDS011;68817;48.110;11.660;2023-08-12T06:48:00;3.22;;;2.80;;
79348;SDS011;68817;48.110;11.660;2023-08-12T06:50:27;5.53;;;3.30;;
79348;SDS011;68817;48.110;11.660;2023-08-12T06:52:52;3.67;;;3.10;;
79348;SDS011;68817;48.110;11.660;2023-08-12T06:55:18;4.93;;;3.40;;
79348;SDS011;68817;48.110;11.660;2023-08-12T06:57:43;4.32;;;3.20;;
79348;SDS011;68817;48.110;11.660;2023-08-12T07:00:09;3.80;;;2.90;;
79348;SDS011;68817;48.110;11.660;2023-08-12T07:02:34;4.00;;;3.03;;
79348;SDS011;68817;48.110;11.660;2023-08-12T07:05:00;3.83;;;3.00;;
79348;SDS011;68817;48.110;11.660;2023-08-12T07:07:25;3.35;;;3.05;;
79348;SDS011;68817;48.110;11.660;2023-08-12T07:09:50;3.30;;;3.00;;
79348;SDS011;68817;48.110;11.660;2023-08-12T07:12:16;5.00;;;2.92;;
79348;SDS011;68817;48.110;11.660;2023-08-12T07:14:41;3.38;;;3.08;;
79348;SDS011;68817;48.110;11.660;2023-08-12T07:17:07;4.13;;;2.90;;
79348;SDS011;68817;48.110;11.660;2023-08-12T07:19:32;3.30;;;3.00;;
79348;SDS011;68817;48.110;11.660;2023-08-12T07:21:57;3.75;;;3.30;;
79348;SDS011;68817;48.110;11.660;2023-08-12T07:24:23;3.53;;;2.83;;
79348;SDS011;68817;48.110;11.660;2023-08-12T07:26:48;3.03;;;2.75;;
79348;SDS011;68817;48.110;11.660;2023-08-12T07:29:13;2.63;;;2.42;;
79348;SDS011;68817;48.110;11.660;2023-08-12T07:31:39;3.22;;;2.92;;
79348;SDS011;68817;48.110;11.660;2023-08-12T07:34:04;2.67;;;2.47;;
79348;SDS011;68817;48.110;11.660;2023-08-12T07:36:30;3.00;;;2.80;;
79348;SDS011;68817;48.110;11.660;2023-08-12T07:38:56;3.90;;;2.95;;
79348;SDS011;68817;48.110;11.660;2023-08-12T07:41:21;3.35;;;2.63;;
79348;SDS011;68817;48.110;11.660;2023-08-12T07:43:46;3.03;;;2.72;;
79348;SDS011;68817;48.110;11.660;2023-08-12T07:46:12;3.40;;;3.10;;
79348;SDS011;68817;48.110;11.660;2023-08-12T07:48:37;3.22;;;2.83;;
79348;SDS011;68817;48.110;11.660;2023-08-12T07:51:03;2.67;;;2.47;;
79348;SDS011;68817;48.110;11.660;2023-08-12T07:53:28;3.08;;;2.65;;
79348;SDS011;68817;48.110;11.660;2023-08-12T07:55:54;4.57;;;2.70;;
79348;SDS011;68817;48.110;11.660;2023-08-12T07:58:19;3.58;;;2.70;;
79348;SDS011;68817;48.110;11.660;2023-08-12T08:00:44;2.80;;;2.60;;
79348;SDS011;68817;48.110;11.660;2023-08-12T08:03:10;2.70;;;2.50;;
79348;SDS011;68817;48.110;11.660;2023-08-12T08:05:36;3.28;;;2.67;;
79348;SDS011;68817;48.110;11.660;2023-08-12T08:10:30;3.20;;;2.90;;
79348;SDS011;68817;48.110;11.660;2023-08-12T08:12:55;3.33;;;3.03;;
79348;SDS011;68817;48.110;11.660;2023-08-12T08:15:21;2.75;;;2.53;;
79348;SDS011;68817;48.110;11.660;2023-08-12T08:17:46;3.45;;;2.92;;
79348;SDS011;68817;48.110;11.660;2023-08-12T08:20:11;2.97;;;2.75;;
79348;SDS011;68817;48.110;11.660;2023-08-12T08:22:37;3.45;;;2.70;;
79348;SDS011;68817;48.110;11.660;2023-08-12T08:25:03;3.33;;;2.80;;
79348;SDS011;68817;48.110;11.660;2023-08-12T08:27:28;3.50;;;2.72;;
79348;SDS011;68817;48.110;11.660;2023-08-12T08:29:54;2.97;;;2.28;;
79348;SDS011;68817;48.110;11.660;2023-08-12T08:32:19;3.88;;;3.38;;
79348;SDS011;68817;48.110;11.660;2023-08-12T08:34:44;4.35;;;2.92;;
79348;SDS011;68817;48.110;11.660;2023-08-12T08:37:10;2.90;;;2.50;;
79348;SDS011;68817;48.110;11.660;2023-08-12T08:39:35;3.13;;;2.88;;
79348;SDS011;68817;48.110;11.660;2023-08-12T08:42:01;5.07;;;2.90;;
79348;SDS011;68817;48.110;11.660;2023-08-12T08:44:28;4.43;;;3.00;;
79348;SDS011;68817;48.110;11.660;2023-08-12T08:46:54;2.60;;;2.40;;
79348;SDS011;68817;48.110;11.660;2023-08-12T08:49:20;2.22;;;2.03;;
79348;SDS011;68817;48.110;11.660;2023-08-12T08:51:47;2.60;;;2.40;;
79348;SDS011;68817;48.110;11.660;2023-08-12T08:54:12;2.80;;;2.60;;
79348;SDS011;68817;48.110;11.660;2023-08-12T08:56:38;3.40;;;2.30;;
79348;SDS011;68817;48.110;11.660;2023-08-12T08:59:04;2.70;;;2.28;;
79348;SDS011;68817;48.110;11.660;2023-08-12T09:01:29;3.10;;;2.80;;
79348;SDS011;68817;48.110;11.660;2023-08-12T09:03:56;2.97;;;2.67;;
79348;SDS011;68817;48.110;11.660;2023-08-12T09:06:23;2.40;;;2.20;;
79348;SDS011;68817;48.110;11.660;2023-08-12T09:08:51;2.95;;;2.58;;
79348;SDS011;68817;48.110;11.660;2023-08-12T09:11:17;2.67;;;2.30;;
79348;SDS011;68817;48.110;11.660;2023-08-12T09:13:43;3.65;;;2.40;;
79348;SDS011;68817;48.110;11.660;2023-08-12T09:16:08;3.30;;;2.55;;
79348;SDS011;68817;48.110;11.660;2023-08-12T09:18:34;2.42;;;2.20;;
79348;SDS011;68817;48.110;11.660;2023-08-12T09:20:59;2.78;;;2.40;;
79348;SDS011;68817;48.110;11.660;2023-08-12T09:23:26;2.92;;;2.70;;
79348;SDS011;68817;48.110;11.660;2023-08-12T09:25:52;3.13;;;2.80;;
79348;SDS011;68817;48.110;11.660;2023-08-12T09:28:18;3.42;;;3.05;;
79348;SDS011;68817;48.110;11.660;2023-08-12T09:30:45;3.17;;;2.92;;
79348;SDS011;68817;48.110;11.660;2023-08-12T09:33:17;3.20;;;2.83;;
79348;SDS011;68817;48.110;11.660;2023-08-12T09:35:49;3.20;;;2.90;;
79348;SDS011;68817;48.110;11.660;2023-08-12T09:38:14;4.53;;;3.22;;
79348;SDS011;68817;48.110;11.660;2023-08-12T09:40:40;4.68;;;3.17;;
79348;SDS011;68817;48.110;11.660;2023-08-12T09:43:05;2.72;;;2.53;;
79348;SDS011;68817;48.110;11.660;2023-08-12T09:45:31;3.40;;;2.78;;
79348;SDS011;68817;48.110;11.660;2023-08-12T09:47:57;3.25;;;2.60;;
79348;SDS011;68817;48.110;11.660;2023-08-12T09:50:24;3.38;;;2.83;;
79348;SDS011;68817;48.110;11.660;2023-08-12T09:52:50;2.95;;;2.35;;
79348;SDS011;68817;48.110;11.660;2023-08-12T09:55:17;2.92;;;2.28;;
79348;SDS011;68817;48.110;11.660;2023-08-12T09:57:43;2.60;;;2.40;;
79348;SDS011;68817;48.110;11.660;2023-08-12T10:00:10;3.05;;;2.00;;
79348;SDS011;68817;48.110;11.660;2023-08-12T10:02:41;3.42;;;2.30;;
79348;SDS011;68817;48.110;11.660;2023-08-12T10:05:07;2.80;;;2.50;;
79348;SDS011;68817;48.110;11.660;2023-08-12T10:07:34;3.03;;;2.60;;
79348;SDS011;68817;48.110;11.660;2023-08-12T10:10:00;2.80;;;2.50;;
79348;SDS011;68817;48.110;11.660;2023-08-12T10:12:26;3.22;;;2.90;;
79348;SDS011;68817;48.110;11.660;2023-08-12T10:14:51;3.35;;;2.72;;
79348;SDS011;68817;48.110;11.660;2023-08-12T10:17:17;3.25;;;2.95;;
79348;SDS011;68817;48.110;11.660;2023-08-12T10:19:43;4.38;;;2.80;;
79348;SDS011;68817;48.110;11.660;2023-08-12T10:22:09;3.60;;;2.88;;
79348;SDS011;68817;48.110;11.660;2023-08-12T10:24:35;3.15;;;2.80;;
79348;SDS011;68817;48.110;11.660;2023-08-12T10:27:01;3.42;;;2.92;;
79348;SDS011;68817;48.110;11.660;2023-08-12T10:29:27;3.88;;;2.70;;
79348;SDS011;68817;48.110;11.660;2023-08-12T10:31:55;2.90;;;2.70;;
79348;SDS011;68817;48.110;11.660;2023-08-12T10:34:22;3.80;;;2.92;;
79348;SDS011;68817;48.110;11.660;2023-08-12T10:36:56;4.10;;;2.45;;
79348;SDS011;68817;48.110;11.660;2023-08-12T10:39:25;3.22;;;2.80;;
79348;SDS011;68817;48.110;11.660;2023-08-12T10:41:52;3.85;;;3.20;;
79348;SDS011;68817;48.110;11.660;2023-08-12T10:44:20;3.25;;;2.95;;
79348;SDS011;68817;48.110;11.660;2023-08-12T10:46:52;2.97;;;2.78;;
79348;SDS011;68817;48.110;11.660;2023-08-12T10:49:21;3.33;;;3.00;;
79348;SDS011;68817;48.110;11.660;2023-08-12T10:51:53;3.50;;;2.90;;
79348;SDS011;68817;48.110;11.660;2023-08-12T10:54:20;3.35;;;2.97;;
79348;SDS011;68817;48.110;11.660;2023-08-12T10:59:47;3.35;;;2.35;;
79348;SDS011;68817;48.110;11.660;2023-08-12T11:02:27;3.30;;;2.67;;
79348;SDS011;68817;48.110;11.660;2023-08-12T11:05:12;3.63;;;2.50;;
79348;SDS011;68817;48.110;11.660;2023-08-12T11:07:43;2.97;;;2.67;;
79348;SDS011;68817;48.110;11.660;2023-08-12T11:12:47;3.10;;;2.55;;
79348;SDS011;68817;48.110;11.660;2023-08-12T11:15:14;3.33;;;2.63;;
79348;SDS011;68817;48.110;11.660;2023-08-12T11:17:40;3.28;;;2.95;;
79348;SDS011;68817;48.110;11.660;2023-08-12T11:20:07;3.10;;;2.80;;
79348;SDS011;68817;48.110;11.660;2023-08-12T11:22:38;3.35;;;2.72;;
79348;SDS011;68817;48.110;11.660;2023-08-12T11:25:09;3.80;;;2.97;;
79348;SDS011;68817;48.110;11.660;2023-08-12T11:27:39;3.47;;;2.78;;
79348;SDS011;68817;48.110;11.660;2023-08-12T11:30:15;3.15;;;2.85;;
79348;SDS011;68817;48.110;11.660;2023-08-12T11:32:47;3.88;;;2.97;;
79348;SDS011;68817;48.110;11.660;2023-08-12T11:35:15;2.88;;;2.50;;
79348;SDS011;68817;48.110;11.660;2023-08-12T11:37:41;3.60;;;2.83;;
79348;SDS011;68817;48.110;11.660;2023-08-12T11:40:09;3.33;;;3.00;;
79348;SDS011;68817;48.110;11.660;2023-08-12T11:42:39;4.18;;;3.17;;
79348;SDS011;68817;48.110;11.660;2023-08-12T11:45:06;3.65;;;2.80;;
79348;SDS011;68817;48.110;11.660;2023-08-12T11:47:32;2.97;;;2.78;;
79348;SDS011;68817;48.110;11.660;2023-08-12T11:52:28;3.10;;;2.55;;
79348;SDS011;68817;48.110;11.660;2023-08-12T11:54:54;4.22;;;3.53;;
79348;SDS011;68817;48.110;11.660;2023-08-12T11:57:21;3.85;;;3.35;;
79348;SDS011;68817;48.110;11.660;2023-08-12T11:59:47;3.25;;;2.13;;
79348;SDS011;68817;48.110;11.660;2023-08-12T12:02:12;2.90;;;2.60;;
79348;SDS011;68817;48.110;11.660;2023-08-12T12:04:38;3.45;;;2.95;;
79348;SDS011;68817;48.110;11.660;2023-08-12T12:07:28;4.75;;;2.92;;
79348;SDS011;68817;48.110;11.660;2023-08-12T12:09:53;3.38;;;2.95;;
79348;SDS011;68817;48.110;11.660;2023-08-12T12:12:25;3.38;;;3.08;;
79348;SDS011;68817;48.110;11.660;2023-08-12T12:14:55;3.00;;;2.67;;
79348;SDS011;68817;48.110;11.660;2023-08-12T12:17:24;3.10;;;2.80;;
79348;SDS011;68817;48.110;11.660;2023-08-12T12:19:53;2.88;;;2.40;;
79348;SDS011;68817;48.110;11.660;2023-08-12T12:22:25;4.60;;;2.50;;
79348;SDS011;68817;48.110;11.660;2023-08-12T12:24:52;4.00;;;2.80;;
79348;SDS011;68817;48.110;11.660;2023-08-12T12:27:17;3.15;;;2.60;;
79348;SDS011;68817;48.110;11.660;2023-08-12T12:29:42;3.03;;;2.45;;
79348;SDS011;68817;48.110;11.660;2023-08-12T12:32:08;2.42;;;1.92;;
79348;SDS011;68817;48.110;11.660;2023-08-12T12:34:34;3.45;;;2.38;;
79348;SDS011;68817;48.110;11.660;2023-08-12T12:36:59;2.63;;;2.17;;
79348;SDS011;68817;48.110;11.660;2023-08-12T12:39:24;3.10;;;2.80;;
79348;SDS011;68817;48.110;11.660;2023-08-12T12:41:50;3.10;;;2.53;;
79348;SDS011;68817;48.110;11.660;2023-08-12T12:44:15;2.80;;;2.47;;
79348;SDS011;68817;48.110;11.660;2023-08-12T12:46:41;3.88;;;2.38;;
79348;SDS011;68817;48.110;11.660;2023-08-12T12:49:06;2.78;;;2.30;;
79348;SDS011;68817;48.110;11.660;2023-08-12T12:51:31;2.50;;;2.30;;
79348;SDS011;68817;48.110;11.660;2023-08-12T12:53:57;2.47;;;2.28;;
79348;SDS011;68817;48.110;11.660;2023-08-12T12:56:22;4.00;;;2.50;;
79348;SDS011;68817;48.110;11.660;2023-08-12T12:58:48;4.25;;;2.38;;
79348;SDS011;68817;48.110;11.660;2023-08-12T13:01:13;3.88;;;2.58;;
79348;SDS011;68817;48.110;11.660;2023-08-12T13:03:39;3.45;;;2.35;;
79348;SDS011;68817;48.110;11.660;2023-08-12T13:06:04;2.80;;;2.50;;
79348;SDS011;68817;48.110;11.660;2023-08-12T13:08:30;3.45;;;2.65;;
79348;SDS011;68817;48.110;11.660;2023-08-12T13:10:58;3.08;;;2.78;;
79348;SDS011;68817;48.110;11.660;2023-08-12T13:13:24;2.72;;;2.50;;
79348;SDS011;68817;48.110;11.660;2023-08-12T13:15:50;4.75;;;2.45;;
79348;SDS011;68817;48.110;11.660;2023-08-12T13:18:15;3.60;;;2.45;;
79348;SDS011;68817;48.110;11.660;2023-08-12T13:20:41;4.43;;;3.05;;
79348;SDS011;68817;48.110;11.660;2023-08-12T13:23:06;3.42;;;3.13;;
79348;SDS011;68817;48.110;11.660;2023-08-12T13:25:32;5.75;;;3.80;;
79348;SDS011;68817;48.110;11.660;2023-08-12T13:28:02;5.00;;;3.35;;
79348;SDS011;68817;48.110;11.660;2023-08-12T13:30:28;4.05;;;2.90;;
79348;SDS011;68817;48.110;11.660;2023-08-12T13:32:53;4.07;;;3.00;;
79348;SDS011;68817;48.110;11.660;2023-08-12T13:35:19;3.85;;;2.83;;
79348;SDS011;68817;48.110;11.660;2023-08-12T13:37:45;3.20;;;2.90;;
79348;SDS011;68817;48.110;11.660;2023-08-12T13:40:10;3.38;;;2.70;;
79348;SDS011;68817;48.110;11.660;2023-08-12T13:42:40;3.30;;;2.88;;
79348;SDS011;68817;48.110;11.660;2023-08-12T13:45:06;3.95;;;3.30;;
79348;SDS011;68817;48.110;11.660;2023-08-12T13:47:33;3.25;;;2.90;;
79348;SDS011;68817;48.110;11.660;2023-08-12T13:49:59;4.38;;;2.92;;
79348;SDS011;68817;48.110;11.660;2023-08-12T13:52:24;4.95;;;2.90;;
79348;SDS011;68817;48.110;11.660;2023-08-12T13:54:50;4.55;;;2.63;;
79348;SDS011;68817;48.110;11.660;2023-08-12T13:57:15;3.72;;;2.72;;
79348;SDS011;68817;48.110;11.660;2023-08-12T13:59:40;3.05;;;2.75;;
79348;SDS011;68817;48.110;11.660;2023-08-12T14:02:09;4.63;;;2.90;;
79348;SDS011;68817;48.110;11.660;2023-08-12T14:04:37;4.15;;;3.28;;
79348;SDS011;68817;48.110;11.660;2023-08-12T14:07:03;3.53;;;2.83;;
79348;SDS011;68817;48.110;11.660;2023-08-12T14:09:29;5.78;;;2.92;;
79348;SDS011;68817;48.110;11.660;2023-08-12T14:11:54;4.20;;;2.70;;
79348;SDS011;68817;48.110;11.660;2023-08-12T14:14:19;4.00;;;2.72;;
79348;SDS011;68817;48.110;11.660;2023-08-12T14:16:45;4.32;;;2.40;;
79348;SDS011;68817;48.110;11.660;2023-08-12T14:19:10;4.20;;;2.55;;
79348;SDS011;68817;48.110;11.660;2023-08-12T14:21:36;5.65;;;2.88;;
79348;SDS011;68817;48.110;11.660;2023-08-12T14:24:01;3.72;;;2.70;;
79348;SDS011;68817;48.110;11.660;2023-08-12T14:26:26;3.78;;;2.88;;
79348;SDS011;68817;48.110;11.660;2023-08-12T14:28:52;3.45;;;2.70;;
79348;SDS011;68817;48.110;11.660;2023-08-12T14:31:17;5.07;;;2.90;;
79348;SDS011;68817;48.110;11.660;2023-08-12T14:33:42;4.30;;;2.65;;
79348;SDS011;68817;48.110;11.660;2023-08-12T14:36:08;3.97;;;2.47;;
79348;SDS011;68817;48.110;11.660;2023-08-12T14:38:33;5.47;;;3.10;;
79348;SDS011;68817;48.110;11.660;2023-08-12T14:40:59;4.57;;;2.40;;